Time;durP1;ratioP1;P1;durP2;ratioP2;P2;SDS_P1;SDS_P2;PMS_P1;PMS_P2;Temp;Humidity;BMP_temperature;BMP_pressure;BME280_temperature;BME280_humidity;BME280_pressure;Samples;Min_cycle;Max_cycle;Signal;HPM_P1;HPM_P2
2020/12/03 00:00:33;;;;;;;12.27;11.15;;;;;;;2.20;92.53;99964.06;5015947;28;20048;-81
2020/12/03 00:03:48;;;;;;;12.35;11.18;;;;;;;2.17;92.25;99950.19;5015854;28;20053;-80
2020/12/03 00:06:55;;;;;;;11.00;9.98;;;;;;;2.20;92.73;99957.94;5015801;28;20053;-81
2020/12/03 00:10:00;;;;;;;10.82;9.82;;;;;;;2.28;92.62;99953.03;5037515;28;20057;-80
2020/12/03 00:13:16;;;;;;;11.38;10.27;;;;;;;2.18;92.62;99949.22;5015188;28;20057;-80
2020/12/03 00:16:21;;;;;;;12.25;11.10;;;;;;;2.18;92.70;99950.09;5014330;28;20507;-79
2020/12/03 00:19:26;;;;;;;13.15;11.95;;;;;;;2.14;92.98;99960.94;5015500;28;20045;-80
2020/12/03 00:22:30;;;;;;;13.68;12.38;;;;;;;2.09;93.16;99949.78;5015466;28;20053;-80
2020/12/03 00:25:34;;;;;;;14.25;12.93;;;;;;;2.06;93.32;99955.25;5015332;28;20110;-80
2020/12/03 00:28:42;;;;;;;13.98;12.68;;;;;;;2.07;93.11;99954.31;5014766;28;20487;-81
2020/12/03 00:31:48;;;;;;;13.55;12.13;;;;;;;2.06;93.39;99944.66;5015354;28;20057;-80
2020/12/03 00:34:52;;;;;;;14.90;13.40;;;;;;;1.98;93.60;99940.69;5015567;28;20049;-81
2020/12/03 00:37:56;;;;;;;15.93;14.32;;;;;;;1.94;93.35;99939.19;5014804;28;20053;-81
2020/12/03 00:41:00;;;;;;;16.67;15.02;;;;;;;1.89;93.93;99938.59;5015876;28;20121;-81
2020/12/03 00:44:05;;;;;;;16.20;14.60;;;;;;;1.87;93.87;99937.84;5015370;28;20048;-81
2020/12/03 00:47:10;;;;;;;17.80;14.77;;;;;;;1.88;94.13;99933.38;5014846;28;20049;-80
2020/12/03 00:50:15;;;;;;;17.15;15.52;;;;;;;1.87;94.36;99929.91;5015012;28;20069;-80
2020/12/03 00:53:21;;;;;;;17.30;15.60;;;;;;;1.85;94.15;99933.56;5001105;28;20065;-81
2020/12/03 00:56:26;;;;;;;17.45;15.45;;;;;;;1.85;94.63;99926.47;4995362;28;20057;-80
2020/12/03 00:59:30;;;;;;;16.98;15.30;;;;;;;1.91;94.61;99934.06;4995479;28;20389;-80
2020/12/03 01:02:35;;;;;;;18.20;16.30;;;;;;;1.92;94.62;99926.97;4995179;28;20057;-80
2020/12/03 01:05:40;;;;;;;17.08;15.38;;;;;;;1.92;94.73;99930.47;4995401;28;20488;-80
2020/12/03 01:08:44;;;;;;;18.40;16.50;;;;;;;1.94;94.69;99925.09;4995111;28;20489;-81
2020/12/03 01:11:48;;;;;;;19.25;17.25;;;;;;;1.93;94.81;99918.94;4995300;28;20053;-80
2020/12/03 01:14:52;;;;;;;17.92;16.05;;;;;;;1.94;94.91;99920.66;4994201;28;20416;-81
2020/12/03 01:17:57;;;;;;;17.83;15.93;;;;;;;2.02;94.65;99928.13;4994935;28;20053;-81
2020/12/03 01:21:02;;;;;;;17.15;15.35;;;;;;;2.02;95.01;99920.19;4994600;28;20064;-80
2020/12/03 01:24:06;;;;;;;19.00;17.08;;;;;;;2.03;94.73;99926.31;4994328;28;20053;-81
2020/12/03 01:27:11;;;;;;;17.92;16.13;;;;;;;2.04;94.47;99925.38;4994181;28;20057;-80
2020/12/03 01:30:18;;;;;;;20.02;17.90;;;;;;;2.04;94.33;99922.75;4995020;28;20500;-81
2020/12/03 01:33:21;;;;;;;19.02;17.05;;;;;;;2.04;94.39;99917.44;4994757;28;20068;-81
2020/12/03 01:36:26;;;;;;;20.25;18.05;;;;;;;2.02;94.43;99914.03;4994146;28;20050;-81
2020/12/03 01:39:30;;;;;;;21.70;19.33;;;;;;;2.03;94.22;99905.13;4994439;28;20066;-80
2020/12/03 01:42:40;;;;;;;19.83;17.73;;;;;;;2.12;94.71;99888.72;4994511;28;20065;-81
2020/12/03 01:45:51;;;;;;;19.23;16.83;;;;;;;2.13;94.23;99887.75;4994771;28;20041;-81
2020/12/03 01:49:02;;;;;;;19.25;17.17;;;;;;;2.10;94.46;99878.22;4993451;28;20504;-81
2020/12/03 01:52:06;;;;;;;19.85;17.50;;;;;;;2.11;94.22;99876.44;4998346;28;20053;-81
2020/12/03 01:55:11;;;;;;;18.70;16.73;;;;;;;2.08;94.19;99868.66;5033473;28;20500;-81
2020/12/03 01:58:54;;;;;;;18.50;16.63;;;;;;;2.06;94.39;99870.56;5033714;28;20045;-80
2020/12/03 02:01:59;;;;;;;20.08;17.42;;;;;;;2.05;94.39;99879.47;4953894;29;20152;-81
2020/12/03 02:05:15;;;;;;;20.85;18.55;;;;;;;2.02;94.85;99877.84;4953906;29;20426;-80
2020/12/03 02:08:19;;;;;;;20.80;18.08;;;;;;;2.04;94.70;99878.59;4953783;29;20058;-81
2020/12/03 02:11:24;;;;;;;21.15;18.90;;;;;;;2.03;94.61;99876.03;4953848;29;20074;-80
2020/12/03 02:14:29;;;;;;;21.08;18.38;;;;;;;2.02;94.58;99869.91;4953500;29;20120;-80
2020/12/03 02:17:33;;;;;;;19.88;17.77;;;;;;;2.03;94.55;99871.59;4958445;28;20049;-80
2020/12/03 02:20:37;;;;;;;18.70;16.67;;;;;;;2.06;94.71;99867.91;4972732;28;20175;-80
2020/12/03 02:23:41;;;;;;;18.10;16.20;;;;;;;2.03;94.40;99855.72;4972808;28;20528;-80
2020/12/03 02:26:50;;;;;;;17.88;15.60;;;;;;;2.07;94.07;99864.34;4972746;28;20142;-80
2020/12/03 02:29:54;;;;;;;19.52;16.70;;;;;;;2.03;93.60;99855.72;4972625;28;20135;-80
2020/12/03 02:33:00;;;;;;;19.30;16.83;;;;;;;2.05;93.99;99855.63;4972564;28;20154;-80
2020/12/03 02:36:04;;;;;;;20.75;16.92;;;;;;;2.03;94.07;99855.72;4972585;28;20552;-80
2020/12/03 02:39:10;;;;;;;20.27;17.48;;;;;;;2.04;93.84;99844.19;5034243;28;20072;-81
2020/12/03 02:42:15;;;;;;;20.02;16.75;;;;;;;2.09;93.83;99838.63;5052065;28;20068;-81
2020/12/03 02:45:19;;;;;;;19.17;16.17;;;;;;;2.05;93.86;99834.47;5041918;28;20052;-80
2020/12/03 02:48:23;;;;;;;20.08;17.42;;;;;;;2.06;94.14;99830.84;5036946;28;20109;-80
2020/12/03 02:51:29;;;;;;;18.83;16.55;;;;;;;2.02;93.90;99824.91;5040406;28;20064;-80
2020/12/03 02:54:33;;;;;;;20.55;17.70;;;;;;;2.03;93.79;99831.03;5016949;28;20053;-80
2020/12/03 02:57:37;;;;;;;20.45;18.08;;;;;;;2.04;93.34;99832.75;5017034;28;20049;-80
2020/12/03 03:00:42;;;;;;;20.50;17.10;;;;;;;2.05;93.82;99824.69;5016106;28;20073;-80
2020/12/03 03:03:46;;;;;;;19.15;16.27;;;;;;;2.07;93.62;99819.34;5016307;28;20333;-78
2020/12/03 03:06:52;;;;;;;20.95;17.98;;;;;;;2.10;93.48;99819.97;4997110;28;20049;-81
2020/12/03 03:09:56;;;;;;;20.85;18.17;;;;;;;2.13;93.53;99817.16;5003110;28;20057;-81
2020/12/03 03:13:01;;;;;;;21.65;18.50;;;;;;;2.16;93.38;99816.97;4996954;28;20050;-80
2020/12/03 03:16:06;;;;;;;22.33;18.38;;;;;;;2.17;93.22;99812.53;5009276;28;20049;-80
2020/12/03 03:19:10;;;;;;;22.35;18.42;;;;;;;2.22;93.06;99821.03;5016491;28;20045;-81
2020/12/03 03:22:15;;;;;;;19.85;17.30;;;;;;;2.23;92.90;99820.94;5009000;28;20045;-81
2020/12/03 03:25:19;;;;;;;19.42;17.13;;;;;;;2.25;92.78;99820.81;4995931;28;20054;-81
2020/12/03 03:28:24;;;;;;;21.25;18.08;;;;;;;2.25;92.76;99826.97;5002129;28;20053;-80
2020/12/03 03:31:28;;;;;;;19.70;16.90;;;;;;;2.28;92.29;99816.19;4996980;28;20057;-80
2020/12/03 03:34:33;;;;;;;19.38;16.25;;;;;;;2.27;92.37;99826.91;5008992;28;20113;-78
2020/12/03 03:37:37;;;;;;;19.17;15.95;;;;;;;2.32;92.34;99814.22;5016413;28;20057;-79
2020/12/03 03:40:41;;;;;;;22.52;17.55;;;;;;;2.35;92.29;99812.22;5015371;28;20060;-80
2020/12/03 03:43:46;;;;;;;18.50;16.00;;;;;;;2.43;92.34;99809.94;5016281;28;20057;-80
2020/12/03 03:46:52;;;;;;;21.52;17.00;;;;;;;2.51;92.43;99817.41;5016182;28;20053;-80
2020/12/03 03:49:56;;;;;;;20.33;16.35;;;;;;;2.53;92.68;99812.84;5014423;28;20436;-80
2020/12/03 03:53:00;;;;;;;20.25;16.88;;;;;;;2.56;92.69;99804.72;5020582;28;20052;-79
2020/12/03 03:56:09;;;;;;;19.23;16.15;;;;;;;2.59;92.73;99809.84;5035513;28;20041;-80
2020/12/03 03:59:14;;;;;;;18.58;16.58;;;;;;;2.59;92.96;99813.31;5023252;28;20052;-81
2020/12/03 04:02:22;;;;;;;20.17;17.20;;;;;;;2.64;93.06;99813.03;5023248;28;20053;-81
2020/12/03 04:05:26;;;;;;;19.70;16.83;;;;;;;2.64;93.07;99802.44;5035483;28;20587;-80
2020/12/03 04:08:31;;;;;;;19.00;15.40;;;;;;;2.67;93.34;99802.22;5023005;28;20076;-80
2020/12/03 04:11:35;;;;;;;18.48;16.48;;;;;;;2.70;93.44;99798.53;5035619;28;20380;-80
2020/12/03 04:14:40;;;;;;;18.13;15.40;;;;;;;2.67;93.14;99796.91;5027043;28;20064;-80
2020/12/03 04:17:45;;;;;;;19.17;16.60;;;;;;;2.67;93.38;99796.09;5049548;28;20060;-80
2020/12/03 04:20:49;;;;;;;16.98;15.18;;;;;;;2.70;93.56;99793.22;5047359;28;20055;-80
2020/12/03 04:23:53;;;;;;;17.33;15.52;;;;;;;2.72;93.33;99786.88;5054364;28;20052;-80
2020/12/03 04:26:58;;;;;;;17.02;15.07;;;;;;;2.64;93.42;99779.41;5035513;28;20491;-80
2020/12/03 04:30:07;;;;;;;18.15;15.48;;;;;;;2.56;93.42;99778.22;5035097;28;20483;-80
2020/12/03 04:33:12;;;;;;;17.10;15.30;;;;;;;2.49;93.01;99783.06;5035207;28;20048;-80
2020/12/03 04:36:17;;;;;;;18.65;15.35;;;;;;;2.48;92.97;99794.63;5033587;28;20494;-81
2020/12/03 04:39:21;;;;;;;15.93;14.20;;;;;;;2.41;92.75;99792.44;5045819;28;20399;-79
2020/12/03 04:42:32;;;;;;;15.50;13.88;;;;;;;2.37;92.76;99797.06;5023084;28;20057;-80
2020/12/03 04:45:44;;;;;;;16.83;15.05;;;;;;;2.35;92.64;99793.69;5034846;28;20048;-80
2020/12/03 04:48:54;;;;;;;18.50;15.07;;;;;;;2.38;92.59;99792.63;5034804;28;20049;-80
2020/12/03 04:52:32;;;;;;;16.88;14.30;;;;;;;2.38;92.58;99796.16;5034197;28;20064;-79
2020/12/03 04:56:00;;;;;;;15.73;14.00;;;;;;;2.35;92.70;99800.78;5047584;28;20048;-80
2020/12/03 04:59:41;;;;;;;18.08;14.88;;;;;;;2.35;92.58;99795.47;5049648;28;20052;-80
2020/12/03 05:03:00;;;;;;;16.10;14.20;;;;;;;2.37;92.71;99796.25;5029086;28;20049;-80
2020/12/03 05:06:16;;;;;;;17.48;15.48;;;;;;;2.37;92.72;99796.25;5034444;28;20040;-80
2020/12/03 05:09:35;;;;;;;16.30;14.13;;;;;;;2.37;92.69;99796.25;5034431;28;20491;-80
2020/12/03 05:12:42;;;;;;;16.42;14.63;;;;;;;2.39;92.72;99794.34;5053743;28;20506;-81
2020/12/03 05:15:50;;;;;;;15.55;13.48;;;;;;;2.37;92.67;99804.19;5035791;28;20054;-80
2020/12/03 05:18:57;;;;;;;15.93;14.20;;;;;;;2.38;92.56;99797.94;5036681;28;20052;-80
2020/12/03 05:22:12;;;;;;;17.98;14.02;;;;;;;2.42;92.43;99796.81;5054014;28;20056;-81
2020/12/03 05:25:16;;;;;;;15.93;14.00;;;;;;;2.47;92.34;99800.84;5054016;28;20044;-79
2020/12/03 05:28:20;;;;;;;17.65;15.27;;;;;;;2.51;92.46;99801.50;5041670;28;20048;-80
2020/12/03 05:31:53;;;;;;;16.20;14.50;;;;;;;2.48;92.29;99796.41;5044272;28;20404;-79
2020/12/03 05:34:57;;;;;;;16.20;13.52;;;;;;;2.50;92.26;99794.50;5021995;28;20056;-80
2020/12/03 05:38:02;;;;;;;14.82;13.20;;;;;;;2.49;92.21;99787.53;5044515;28;20432;-80
2020/12/03 05:41:12;;;;;;;15.25;13.60;;;;;;;2.56;92.41;99786.19;5033657;28;20057;-79
2020/12/03 05:44:30;;;;;;;15.88;14.13;;;;;;;2.60;92.11;99780.59;5033936;28;20052;-80
2020/12/03 05:47:37;;;;;;;16.30;14.10;;;;;;;2.63;92.44;99777.75;5034068;28;20385;-80
2020/12/03 05:50:42;;;;;;;14.93;13.38;;;;;;;2.63;92.46;99785.69;5033865;28;20044;-78
2020/12/03 05:53:56;;;;;;;16.67;14.63;;;;;;;2.70;92.76;99794.06;5033027;28;20048;-81
2020/12/03 05:57:00;;;;;;;;;;;;;;;2.69;92.78;99803.00;5033836;28;20511;-80
2020/12/03 06:00:13;;;;;;;15.80;13.65;;;;;;;2.69;92.97;99810.09;5021873;28;19924;-80
2020/12/03 06:03:49;;;;;;;16.83;14.60;;;;;;;2.64;92.98;99815.69;5034050;28;20045;-81
2020/12/03 06:07:15;;;;;;;21.50;17.30;;;;;;;2.65;92.99;99820.03;5033989;28;20048;-81
2020/12/03 06:10:39;;;;;;;15.82;14.02;;;;;;;2.58;92.57;99813.41;5034460;28;20052;-80
2020/12/03 06:14:06;;;;;;;16.38;14.48;;;;;;;2.47;92.75;99816.75;5033741;28;20068;-81
2020/12/03 06:17:19;;;;;;;17.80;14.90;;;;;;;2.49;92.82;99820.13;5037101;28;20048;-79
2020/12/03 06:20:42;;;;;;;18.77;15.52;;;;;;;2.47;93.08;99811.44;5025457;28;20068;-81
2020/12/03 06:24:24;;;;;;;17.77;14.77;;;;;;;2.45;92.89;99809.84;5037563;28;20053;-81
2020/12/03 06:27:36;;;;;;;17.60;14.68;;;;;;;2.45;93.00;99818.63;5027151;28;20053;-81
2020/12/03 06:30:46;;;;;;;18.40;15.02;;;;;;;2.43;93.11;99828.47;5037501;28;20053;-79
2020/12/03 06:34:12;;;;;;;17.02;15.07;;;;;;;2.41;93.23;99830.38;5037238;28;20056;-79
2020/12/03 06:37:27;;;;;;;16.55;13.73;;;;;;;2.38;93.12;99827.06;5036747;28;20392;-79
2020/12/03 06:40:38;;;;;;;15.88;14.18;;;;;;;2.35;93.35;99832.53;5037458;28;20048;-78
2020/12/03 06:43:47;;;;;;;18.27;16.15;;;;;;;2.29;93.60;99831.16;5037197;28;20140;-80
2020/12/03 06:47:25;;;;;;;19.77;17.10;;;;;;;2.29;93.82;99843.53;5036629;28;20057;-78
2020/12/03 06:51:03;;;;;;;19.17;16.58;;;;;;;2.33;94.11;99851.19;5036834;28;20388;-78
2020/12/03 06:54:29;;;;;;;18.05;15.93;;;;;;;2.36;94.06;99853.66;5036047;28;20065;-78
2020/12/03 06:58:13;;;;;;;18.30;15.93;;;;;;;2.49;94.00;99856.38;5036716;28;20503;-78
2020/12/03 07:01:55;;;;;;;23.23;18.23;;;;;;;2.51;94.15;99857.13;5036667;28;20052;-78
2020/12/03 07:05:11;;;;;;;26.02;20.27;;;;;;;2.51;94.28;99846.53;5036497;28;20049;-79
2020/12/03 07:08:27;;;;;;;24.02;18.60;;;;;;;2.56;94.06;99853.25;5036508;28;20044;-77
2020/12/03 07:11:51;;;;;;;22.60;18.73;;;;;;;2.58;94.22;99859.31;5036527;28;20045;-78
2020/12/03 07:15:24;;;;;;;21.15;18.77;;;;;;;2.73;93.97;99862.78;5039720;28;20403;-77
2020/12/03 07:19:16;;;;;;;20.55;17.58;;;;;;;2.87;93.69;99878.63;5053743;28;20052;-77
2020/12/03 07:22:26;;;;;;;19.17;16.23;;;;;;;3.01;93.43;99880.44;5055575;28;20510;-77
2020/12/03 07:25:32;;;;;;;18.85;16.48;;;;;;;3.10;92.88;99870.06;5055663;28;20060;-77
2020/12/03 07:28:37;;;;;;;17.63;15.73;;;;;;;3.26;92.31;99876.06;5055505;28;20036;-77
2020/12/03 07:31:45;;;;;;;17.23;15.43;;;;;;;3.33;91.98;99870.38;5056048;28;20052;-77
2020/12/03 07:35:05;;;;;;;17.08;15.27;;;;;;;3.49;91.39;99871.03;5056184;28;20055;-78
2020/12/03 07:38:26;;;;;;;15.63;14.07;;;;;;;3.58;90.91;99860.66;5055382;28;20051;-77
2020/12/03 07:41:39;;;;;;;14.82;13.43;;;;;;;3.80;89.96;99860.09;5055416;28;20399;-77
2020/12/03 07:44:53;;;;;;;15.00;13.25;;;;;;;4.81;87.03;99860.00;5036071;28;20052;-77
2020/12/03 07:48:06;;;;;;;;;;;;;;;7.97;77.09;99849.06;5050049;28;20047;-77
2020/12/03 07:51:18;;;;;;;9.73;8.48;;;;;;;10.94;62.38;99836.75;5075488;28;19927;-77
2020/12/03 07:54:23;;;;;;;8.65;7.75;;;;;;;10.79;59.89;99834.75;5062395;28;20103;-78
2020/12/03 07:57:34;;;;;;;8.73;7.25;;;;;;;9.87;61.39;99840.91;5075566;28;20363;-77
2020/12/03 08:00:53;;;;;;;8.30;7.07;;;;;;;9.22;62.22;99842.41;5051269;28;20048;-78
2020/12/03 08:04:18;;;;;;;8.80;7.13;;;;;;;8.76;63.19;99843.03;5054850;28;20057;-78
2020/12/03 08:07:27;;;;;;;9.23;7.47;;;;;;;8.27;65.72;99830.41;5055114;28;20502;-78
2020/12/03 08:10:40;;;;;;;8.45;7.57;;;;;;;7.39;68.53;99850.41;5054129;28;20044;-78
2020/12/03 08:13:56;;;;;;;9.50;8.57;;;;;;;7.04;69.75;99847.09;5054339;28;20056;-78
2020/12/03 08:17:02;;;;;;;10.45;8.85;;;;;;;6.89;71.28;99845.69;5053887;28;20052;-78
2020/12/03 08:20:18;;;;;;;10.82;9.73;;;;;;;6.45;72.69;99844.75;5054293;28;20514;-77
2020/12/03 08:23:22;;;;;;;12.18;10.43;;;;;;;6.38;74.65;99854.22;5054471;28;20060;-78
2020/12/03 08:26:27;;;;;;;13.07;11.63;;;;;;;6.28;75.33;99853.22;5054058;28;20056;-77
2020/12/03 08:29:37;;;;;;;15.07;13.48;;;;;;;6.31;76.35;99850.34;5053817;28;20044;-78
2020/12/03 08:33:02;;;;;;;14.15;12.18;;;;;;;6.45;75.53;99844.75;5053664;28;20048;-77
2020/12/03 08:36:08;;;;;;;16.83;13.27;;;;;;;6.83;73.50;99840.84;5053130;28;20051;-78
2020/12/03 08:39:18;;;;;;;15.68;13.98;;;;;;;7.21;72.66;99836.75;5053655;28;20048;-77
2020/12/03 08:42:23;;;;;;;19.38;17.17;;;;;;;7.47;70.50;99837.28;5054406;28;20052;-79
2020/12/03 08:45:28;;;;;;;23.13;20.52;;;;;;;6.96;72.17;99838.91;5063460;28;20067;-83
2020/12/03 08:48:37;;;;;;;18.13;15.35;;;;;;;6.79;72.13;99845.56;5074157;28;20049;-78
2020/12/03 08:51:48;;;;;;;17.05;14.52;;;;;;;6.65;72.84;99847.66;5073678;28;20052;-77
2020/12/03 08:54:52;;;;;;;18.83;15.85;;;;;;;6.52;73.78;99840.63;5073503;28;20155;-78
2020/12/03 08:57:59;;;;;;;15.90;13.43;;;;;;;6.09;74.85;99855.63;5061425;28;20060;-78
2020/12/03 09:01:05;;;;;;;15.52;12.77;;;;;;;5.92;75.45;99860.56;5073388;28;20080;-79
2020/12/03 09:04:09;;;;;;;15.23;12.85;;;;;;;5.80;76.78;99860.47;5061583;28;20055;-77
2020/12/03 09:07:17;;;;;;;20.10;15.60;;;;;;;5.64;77.26;99862.63;5073553;28;20056;-79
2020/12/03 09:10:22;;;;;;;20.67;15.90;;;;;;;5.80;77.61;99867.66;5073087;28;20048;-77
2020/12/03 09:13:27;;;;;;;17.13;14.68;;;;;;;5.76;77.73;99859.03;5060745;28;20060;-78
2020/12/03 09:16:34;;;;;;;17.50;15.10;;;;;;;5.94;77.56;99858.63;5073711;28;20391;-79
2020/12/03 09:19:39;;;;;;;16.92;15.13;;;;;;;5.94;77.41;99863.94;5073097;28;20052;-80
2020/12/03 09:22:44;;;;;;;18.30;15.52;;;;;;;6.13;77.11;99870.41;5073213;28;20111;-80
2020/12/03 09:25:50;;;;;;;16.98;14.55;;;;;;;6.31;76.59;99868.13;5072920;28;20068;-79
2020/12/03 09:28:55;;;;;;;17.13;14.52;;;;;;;6.53;76.76;99870.81;5073303;28;20055;-81
2020/12/03 09:32:05;;;;;;;15.75;13.95;;;;;;;6.74;75.73;99869.09;5073174;28;20395;-80
2020/12/03 09:35:10;;;;;;;17.73;12.85;;;;;;;6.93;74.90;99865.81;5073126;28;20075;-79
2020/12/03 09:38:16;;;;;;;13.60;11.15;;;;;;;7.22;73.34;99861.63;5060937;28;20419;-79
2020/12/03 09:41:22;;;;;;;13.93;12.07;;;;;;;7.65;72.02;99856.28;5072991;28;20407;-80
2020/12/03 09:44:26;;;;;;;13.07;10.95;;;;;;;7.78;71.09;99855.09;5073271;28;20051;-80
2020/12/03 09:47:32;;;;;;;11.68;10.48;;;;;;;7.82;70.63;99851.22;5060655;28;20056;-79
2020/12/03 09:50:40;;;;;;;11.07;9.93;;;;;;;7.95;70.00;99842.16;5060887;28;20044;-79
2020/12/03 09:53:45;;;;;;;11.63;10.23;;;;;;;8.00;69.71;99839.94;5072426;28;20391;-79
2020/12/03 09:56:50;;;;;;;13.73;11.73;;;;;;;8.43;68.68;99832.59;5060608;28;20434;-79
2020/12/03 09:59:54;;;;;;;14.43;12.93;;;;;;;8.61;68.91;99824.78;5070346;28;20059;-79
2020/12/03 10:03:26;;;;;;;16.35;13.45;;;;;;;8.91;67.33;99820.22;5060503;28;20051;-79
2020/12/03 10:06:52;;;;;;;13.98;11.63;;;;;;;8.82;66.27;99814.84;5060681;28;20055;-78
2020/12/03 10:10:21;;;;;;;13.43;12.02;;;;;;;9.06;65.96;99813.50;5072287;28;20403;-79
2020/12/03 10:13:47;;;;;;;14.95;12.50;;;;;;;9.12;65.34;99817.47;5060817;28;20055;-78
2020/12/03 10:17:02;;;;;;;13.27;11.90;;;;;;;9.25;66.45;99812.69;5049236;28;20071;-78
2020/12/03 10:20:06;;;;;;;15.13;12.50;;;;;;;9.32;65.84;99802.25;5072487;28;20056;-78
2020/12/03 10:23:11;;;;;;;12.90;11.25;;;;;;;9.87;64.29;99811.41;5072678;28;20055;-81
2020/12/03 10:26:17;;;;;;;12.48;10.95;;;;;;;9.88;64.50;99807.72;5072921;28;20047;-87
2020/12/03 10:29:25;;;;;;;14.00;12.13;;;;;;;9.82;64.42;99809.16;5072354;28;20051;-79
2020/12/03 10:32:31;;;;;;;13.15;10.35;;;;;;;9.50;64.56;99806.78;5073055;28;20048;-78
2020/12/03 10:35:41;;;;;;;11.52;10.32;;;;;;;8.82;66.22;99804.16;5059762;28;20526;-79
2020/12/03 10:38:48;;;;;;;11.48;10.27;;;;;;;8.89;67.32;99794.59;5072466;28;20482;-78
2020/12/03 10:41:54;;;;;;;11.75;10.55;;;;;;;8.75;66.70;99794.97;5060235;28;20044;-79
2020/12/03 10:45:11;;;;;;;11.35;10.15;;;;;;;8.70;67.08;99799.88;5072438;28;20518;-79
2020/12/03 10:48:26;;;;;;;11.40;10.15;;;;;;;8.89;66.62;99799.94;5073074;28;20048;-79
2020/12/03 10:51:31;;;;;;;12.77;11.15;;;;;;;8.42;67.89;99796.97;5020522;28;20064;-78
2020/12/03 10:54:35;;;;;;;12.57;11.27;;;;;;;8.21;69.94;99795.31;5001397;28;20045;-77
2020/12/03 10:57:43;;;;;;;13.13;11.73;;;;;;;7.90;70.07;99793.59;5012674;28;20041;-78
2020/12/03 11:00:48;;;;;;;14.00;12.23;;;;;;;7.93;71.25;99787.97;5011050;28;20064;-78
2020/12/03 11:03:54;;;;;;;16.88;13.50;;;;;;;7.64;72.63;99780.63;5015852;28;20511;-78
2020/12/03 11:07:07;;;;;;;19.45;13.02;;;;;;;7.69;73.52;99775.75;5016361;28;20520;-78
2020/12/03 11:10:14;;;;;;;15.52;13.93;;;;;;;7.49;73.70;99784.59;5015995;28;20508;-77
2020/12/03 11:13:20;;;;;;;15.80;13.93;;;;;;;7.01;75.24;99778.84;5016244;28;20511;-78
2020/12/03 11:16:28;;;;;;;17.70;15.00;;;;;;;6.91;75.74;99777.06;5015376;28;20053;-78
2020/12/03 11:19:34;;;;;;;18.10;14.75;;;;;;;6.85;76.22;99782.88;5015500;28;20397;-78
2020/12/03 11:22:43;;;;;;;19.85;16.92;;;;;;;6.58;76.86;99777.97;5012438;28;20053;-78
2020/12/03 11:25:48;;;;;;;21.80;17.55;;;;;;;6.37;78.33;99785.03;5014627;28;20053;-85
2020/12/03 11:28:53;;;;;;;21.58;18.95;;;;;;;6.08;79.27;99786.47;5022263;28;20049;-84
2020/12/03 11:31:57;;;;;;;23.10;20.50;;;;;;;5.93;80.26;99769.03;5014703;28;20056;-78
2020/12/03 11:35:01;;;;;;;23.83;21.05;;;;;;;6.11;80.14;99772.91;5015446;28;20060;-79
2020/12/03 11:38:06;;;;;;;24.73;22.20;;;;;;;5.98;79.80;99772.16;5016032;28;20483;-79
2020/12/03 11:41:21;;;;;;;28.58;24.63;;;;;;;5.81;80.72;99762.81;5014836;28;20049;-78
2020/12/03 11:50:56;;;;;;;27.55;22.80;;;;;;;5.82;80.98;99746.72;5015483;28;20044;-78
2020/12/03 11:54:09;;;;;;;29.30;24.30;;;;;;;6.06;81.43;99753.78;5006345;28;20401;-78
2020/12/03 11:57:14;;;;;;;27.67;24.80;;;;;;;6.02;80.77;99755.00;4995198;28;20045;-77
2020/12/03 12:00:23;;;;;;;27.05;24.27;;;;;;;6.13;81.14;99750.50;4997155;28;20053;-78
2020/12/03 12:03:29;;;;;;;26.73;23.88;;;;;;;5.97;81.23;99749.19;4997735;28;20053;-78
2020/12/03 12:06:43;;;;;;;25.10;22.50;;;;;;;6.05;80.95;99738.78;4995791;28;20508;-77
2020/12/03 12:12:54;;;;;;;25.02;22.42;;;;;;;6.49;80.20;99725.41;4995432;28;20058;-78
2020/12/03 12:15:58;;;;;;;24.02;21.63;;;;;;;6.87;78.80;99717.78;4995800;28;20050;-78
2020/12/03 12:19:03;;;;;;;24.77;20.80;;;;;;;7.07;77.63;99722.31;4995609;28;20049;-78
2020/12/03 12:22:09;;;;;;;24.10;21.55;;;;;;;7.28;77.01;99719.66;4995613;28;20049;-78
2020/12/03 12:25:14;;;;;;;24.05;21.52;;;;;;;7.31;75.83;99716.72;4994438;28;20058;-78
2020/12/03 12:28:19;;;;;;;25.42;20.65;;;;;;;7.56;75.07;99710.13;5001842;28;20100;-81
2020/12/03 12:31:29;;;;;;;22.77;19.92;;;;;;;7.31;75.98;99699.88;5014591;28;20503;-78
2020/12/03 12:34:33;;;;;;;24.83;22.38;;;;;;;6.90;76.87;99698.84;5014447;28;20073;-79
2020/12/03 12:37:37;;;;;;;24.08;21.38;;;;;;;6.92;77.44;99707.56;5013392;28;20069;-78
2020/12/03 12:40:42;;;;;;;24.63;22.15;;;;;;;6.70;78.38;99704.13;5014629;28;20057;-77
2020/12/03 12:43:46;;;;;;;26.83;22.25;;;;;;;6.88;78.25;99691.94;5014296;28;20480;-77
2020/12/03 12:46:55;;;;;;;24.77;21.70;;;;;;;6.73;78.37;99696.75;5014709;28;20053;-77
2020/12/03 12:49:59;;;;;;;23.77;21.27;;;;;;;6.50;78.76;99701.28;5014713;28;20069;-78
2020/12/03 12:53:04;;;;;;;24.45;21.80;;;;;;;6.30;79.54;99695.88;5022174;28;20060;-77
2020/12/03 12:56:12;;;;;;;26.48;22.75;;;;;;;6.41;79.37;99698.53;5053317;28;20072;-78
2020/12/03 12:59:17;;;;;;;26.60;23.73;;;;;;;6.24;79.41;99691.91;5053799;28;20056;-77
2020/12/03 13:02:21;;;;;;;23.73;21.33;;;;;;;6.22;79.69;99693.81;5053228;28;20076;-78
2020/12/03 13:05:26;;;;;;;24.95;22.20;;;;;;;5.97;80.20;99686.13;5052804;28;20052;-77
2020/12/03 13:08:31;;;;;;;26.27;21.92;;;;;;;5.94;80.94;99688.16;5052889;28;20116;-78
2020/12/03 13:11:37;;;;;;;25.50;22.88;;;;;;;5.87;81.35;99693.13;5053551;28;20052;-77
2020/12/03 13:14:41;;;;;;;25.17;22.58;;;;;;;5.72;81.58;99703.16;5053626;28;20056;-77
2020/12/03 13:17:45;;;;;;;26.02;22.92;;;;;;;5.71;81.72;99701.44;5053303;28;20506;-77
2020/12/03 13:20:50;;;;;;;28.70;25.67;;;;;;;5.54;82.42;99703.72;5053643;28;20039;-78
2020/12/03 13:23:54;;;;;;;30.70;26.00;;;;;;;5.59;82.89;99710.38;5051928;28;20494;-78
2020/12/03 13:26:59;;;;;;;28.75;25.55;;;;;;;5.56;83.27;99705.28;5053568;28;20528;-78
2020/12/03 13:30:05;;;;;;;30.40;27.15;;;;;;;5.65;83.75;99701.09;5053902;28;20052;-81
2020/12/03 13:33:09;;;;;;;32.00;27.05;;;;;;;5.76;83.46;99688.63;5041106;28;20502;-79
2020/12/03 13:36:14;;;;;;;30.25;27.13;;;;;;;5.69;83.11;99690.06;5053436;28;20076;-77
2020/12/03 13:39:19;;;;;;;32.13;28.73;;;;;;;5.79;82.95;99675.06;5053135;28;20051;-79
2020/12/03 13:42:23;;;;;;;29.80;26.60;;;;;;;5.66;82.72;99670.81;5054605;28;20043;-77
2020/12/03 13:45:28;;;;;;;32.47;29.08;;;;;;;5.69;83.27;99676.75;5064195;28;20064;-79
2020/12/03 13:48:32;;;;;;;31.20;27.88;;;;;;;5.62;83.06;99669.38;5072018;28;20124;-77
2020/12/03 13:51:37;;;;;;;31.02;27.70;;;;;;;5.34;83.13;99662.69;5072941;28;20040;-77
2020/12/03 13:54:41;;;;;;;31.05;27.75;;;;;;;5.20;84.01;99646.94;5073149;28;20391;-77
2020/12/03 13:57:45;;;;;;;31.15;27.73;;;;;;;5.11;84.32;99656.47;5072373;28;20521;-77
2020/12/03 14:00:50;;;;;;;34.03;29.77;;;;;;;5.08;85.00;99655.88;5073132;28;20047;-77
2020/12/03 14:03:54;;;;;;;38.00;29.63;;;;;;;5.04;84.96;99659.69;5072301;28;20056;-77
2020/12/03 14:06:58;;;;;;;32.78;29.38;;;;;;;5.08;85.29;99659.38;5073006;28;20048;-77
2020/12/03 14:10:03;;;;;;;31.25;27.83;;;;;;;5.20;84.71;99665.56;5072930;28;20055;-77
2020/12/03 14:13:09;;;;;;;33.30;29.60;;;;;;;5.18;84.99;99675.47;5072549;28;20040;-76
2020/12/03 14:16:13;;;;;;;35.33;30.83;;;;;;;5.04;85.19;99679.19;5072895;28;20040;-76
2020/12/03 14:19:17;;;;;;;33.35;29.27;;;;;;;4.99;85.71;99694.63;5051354;28;20423;-78
2020/12/03 14:22:24;;;;;;;31.80;28.40;;;;;;;4.99;85.13;99691.97;5052554;28;20048;-77
2020/12/03 14:25:28;;;;;;;33.78;30.20;;;;;;;5.00;85.72;99685.69;5052687;28;20056;-75
2020/12/03 14:28:33;;;;;;;40.83;33.63;;;;;;;5.00;85.25;99690.16;5052474;28;20048;-75
2020/12/03 14:31:37;;;;;;;35.63;31.70;;;;;;;4.98;86.27;99684.13;5052247;28;20048;-78
2020/12/03 14:34:42;;;;;;;35.35;31.75;;;;;;;4.97;86.26;99677.09;5053013;28;20048;-78
2020/12/03 14:37:46;;;;;;;39.38;32.40;;;;;;;4.89;86.36;99676.84;5054959;28;20064;-77
2020/12/03 14:40:51;;;;;;;35.05;31.23;;;;;;;4.84;86.44;99679.81;5056611;28;20056;-78
2020/12/03 14:43:55;;;;;;;35.13;29.38;;;;;;;4.80;86.40;99675.72;5069276;28;20059;-77
2020/12/03 14:47:02;;;;;;;36.03;29.77;;;;;;;4.77;86.18;99675.09;5067051;28;20056;-77
2020/12/03 14:50:12;;;;;;;42.58;29.83;;;;;;;4.69;86.55;99674.84;5075536;28;20398;-77